sensor_id;sensor_type;location;lat;lon;timestamp;P1;durP1;ratioP1;P2;durP2;ratioP2
26253;SDS011;53339;51.378;0.094;2023-05-10T00:00:32;8.20;;;3.08;;
26253;SDS011;53339;51.378;0.094;2023-05-10T00:03:03;8.65;;;3.10;;
26253;SDS011;53339;51.378;0.094;2023-05-10T00:06:01;8.18;;;3.08;;
26253;SDS011;53339;51.378;0.094;2023-05-10T00:08:38;7.25;;;3.85;;
26253;SDS011;53339;51.378;0.094;2023-05-10T00:11:48;7.32;;;2.45;;
26253;SDS011;53339;51.378;0.094;2023-05-10T00:14:55;8.40;;;3.20;;
26253;SDS011;53339;51.378;0.094;2023-05-10T00:17:44;8.30;;;2.97;;
26253;SDS011;53339;51.378;0.094;2023-05-10T00:20:22;7.95;;;3.65;;
26253;SDS011;53339;51.378;0.094;2023-05-10T00:23:12;9.07;;;4.03;;
26253;SDS011;53339;51.378;0.094;2023-05-10T00:28:56;7.30;;;3.55;;
26253;SDS011;53339;51.378;0.094;2023-05-10T00:31:35;10.05;;;3.42;;
26253;SDS011;53339;51.378;0.094;2023-05-10T00:34:11;8.40;;;3.63;;
26253;SDS011;53339;51.378;0.094;2023-05-10T00:37:01;10.35;;;3.60;;
26253;SDS011;53339;51.378;0.094;2023-05-10T00:40:03;8.10;;;3.58;;
26253;SDS011;53339;51.378;0.094;2023-05-10T00:42:43;9.02;;;3.40;;
26253;SDS011;53339;51.378;0.094;2023-05-10T00:45:24;6.82;;;4.85;;
26253;SDS011;53339;51.378;0.094;2023-05-10T00:48:15;7.60;;;3.78;;
26253;SDS011;53339;51.378;0.094;2023-05-10T00:51:10;7.07;;;3.17;;
26253;SDS011;53339;51.378;0.094;2023-05-10T00:53:46;11.77;;;4.78;;
26253;SDS011;53339;51.378;0.094;2023-05-10T00:56:41;10.18;;;3.83;;
26253;SDS011;53339;51.378;0.094;2023-05-10T00:59:31;8.18;;;3.58;;
26253;SDS011;53339;51.378;0.094;2023-05-10T01:02:24;8.60;;;4.20;;
26253;SDS011;53339;51.378;0.094;2023-05-10T01:05:10;12.13;;;5.18;;
26253;SDS011;53339;51.378;0.094;2023-05-10T01:07:59;8.63;;;3.90;;
26253;SDS011;53339;51.378;0.094;2023-05-10T01:10:48;9.73;;;4.43;;
26253;SDS011;53339;51.378;0.094;2023-05-10T01:13:33;12.48;;;5.07;;
26253;SDS011;53339;51.378;0.094;2023-05-10T01:16:58;8.15;;;4.15;;
26253;SDS011;53339;51.378;0.094;2023-05-10T01:19:34;10.77;;;5.32;;
26253;SDS011;53339;51.378;0.094;2023-05-10T01:28:50;12.10;;;4.90;;
26253;SDS011;53339;51.378;0.094;2023-05-10T01:35:23;14.63;;;5.82;;
26253;SDS011;53339;51.378;0.094;2023-05-10T01:42:00;11.88;;;5.18;;
26253;SDS011;53339;51.378;0.094;2023-05-10T01:45:52;15.13;;;5.65;;
26253;SDS011;53339;51.378;0.094;2023-05-10T01:48:45;11.25;;;5.35;;
26253;SDS011;53339;51.378;0.094;2023-05-10T01:51:25;14.43;;;6.72;;
26253;SDS011;53339;51.378;0.094;2023-05-10T01:54:36;14.90;;;7.03;;
26253;SDS011;53339;51.378;0.094;2023-05-10T02:00:31;12.88;;;4.50;;
26253;SDS011;53339;51.378;0.094;2023-05-10T02:03:40;13.50;;;5.75;;
26253;SDS011;53339;51.378;0.094;2023-05-10T02:06:20;13.25;;;5.63;;
26253;SDS011;53339;51.378;0.094;2023-05-10T02:09:05;15.75;;;5.97;;
26253;SDS011;53339;51.378;0.094;2023-05-10T02:12:16;15.50;;;6.20;;
26253;SDS011;53339;51.378;0.094;2023-05-10T02:15:11;11.75;;;5.32;;
26253;SDS011;53339;51.378;0.094;2023-05-10T02:18:09;13.18;;;5.90;;
26253;SDS011;53339;51.378;0.094;2023-05-10T02:20:45;12.05;;;5.20;;
26253;SDS011;53339;51.378;0.094;2023-05-10T02:23:23;16.85;;;6.30;;
26253;SDS011;53339;51.378;0.094;2023-05-10T02:26:03;13.98;;;5.88;;
26253;SDS011;53339;51.378;0.094;2023-05-10T02:31:43;14.10;;;5.28;;
26253;SDS011;53339;51.378;0.094;2023-05-10T02:34:27;11.93;;;5.85;;
26253;SDS011;53339;51.378;0.094;2023-05-10T02:37:09;13.80;;;6.35;;
26253;SDS011;53339;51.378;0.094;2023-05-10T02:40:17;14.27;;;6.55;;
26253;SDS011;53339;51.378;0.094;2023-05-10T02:43:17;13.48;;;5.20;;
26253;SDS011;53339;51.378;0.094;2023-05-10T02:46:28;10.95;;;5.18;;
26253;SDS011;53339;51.378;0.094;2023-05-10T02:49:37;11.00;;;5.30;;
26253;SDS011;53339;51.378;0.094;2023-05-10T02:52:14;12.45;;;5.78;;
26253;SDS011;53339;51.378;0.094;2023-05-10T02:54:58;11.27;;;4.25;;
26253;SDS011;53339;51.378;0.094;2023-05-10T02:58:11;14.43;;;6.20;;
26253;SDS011;53339;51.378;0.094;2023-05-10T03:04:00;12.98;;;5.32;;
26253;SDS011;53339;51.378;0.094;2023-05-10T03:06:56;11.68;;;6.78;;
26253;SDS011;53339;51.378;0.094;2023-05-10T03:09:48;12.52;;;4.97;;
26253;SDS011;53339;51.378;0.094;2023-05-10T03:12:38;11.48;;;4.63;;
26253;SDS011;53339;51.378;0.094;2023-05-10T03:15:59;14.23;;;6.38;;
26253;SDS011;53339;51.378;0.094;2023-05-10T03:22:31;13.98;;;5.55;;
26253;SDS011;53339;51.378;0.094;2023-05-10T03:25:42;14.63;;;5.45;;
26253;SDS011;53339;51.378;0.094;2023-05-10T03:28:21;14.02;;;5.75;;
26253;SDS011;53339;51.378;0.094;2023-05-10T03:31:12;12.55;;;5.65;;
26253;SDS011;53339;51.378;0.094;2023-05-10T03:34:03;21.23;;;6.05;;
26253;SDS011;53339;51.378;0.094;2023-05-10T03:36:48;16.70;;;6.05;;
26253;SDS011;53339;51.378;0.094;2023-05-10T03:39:23;11.05;;;4.80;;
26253;SDS011;53339;51.378;0.094;2023-05-10T03:41:59;15.77;;;5.57;;
26253;SDS011;53339;51.378;0.094;2023-05-10T03:44:54;13.05;;;5.70;;
26253;SDS011;53339;51.378;0.094;2023-05-10T03:47:55;16.80;;;6.13;;
26253;SDS011;53339;51.378;0.094;2023-05-10T03:51:04;18.38;;;6.78;;
26253;SDS011;53339;51.378;0.094;2023-05-10T03:53:44;15.98;;;5.95;;
26253;SDS011;53339;51.378;0.094;2023-05-10T03:56:44;13.60;;;5.68;;
26253;SDS011;53339;51.378;0.094;2023-05-10T03:59:24;16.77;;;6.32;;
26253;SDS011;53339;51.378;0.094;2023-05-10T04:02:10;17.77;;;6.55;;
26253;SDS011;53339;51.378;0.094;2023-05-10T04:07:45;16.92;;;6.10;;
26253;SDS011;53339;51.378;0.094;2023-05-10T04:10:21;18.20;;;7.22;;
26253;SDS011;53339;51.378;0.094;2023-05-10T04:13:26;15.57;;;5.50;;
26253;SDS011;53339;51.378;0.094;2023-05-10T04:16:12;16.83;;;5.65;;
26253;SDS011;53339;51.378;0.094;2023-05-10T04:18:53;14.38;;;4.78;;
26253;SDS011;53339;51.378;0.094;2023-05-10T04:21:29;16.42;;;6.38;;
26253;SDS011;53339;51.378;0.094;2023-05-10T04:24:12;18.50;;;6.68;;
26253;SDS011;53339;51.378;0.094;2023-05-10T04:27:05;12.27;;;5.38;;
26253;SDS011;53339;51.378;0.094;2023-05-10T04:30:10;17.95;;;7.35;;
26253;SDS011;53339;51.378;0.094;2023-05-10T04:32:58;19.80;;;7.32;;
26253;SDS011;53339;51.378;0.094;2023-05-10T04:35:49;13.63;;;5.40;;
26253;SDS011;53339;51.378;0.094;2023-05-10T04:38:38;17.55;;;6.07;;
26253;SDS011;53339;51.378;0.094;2023-05-10T04:41:14;20.83;;;7.03;;
26253;SDS011;53339;51.378;0.094;2023-05-10T04:43:53;18.15;;;6.85;;
26253;SDS011;53339;51.378;0.094;2023-05-10T04:46:34;14.93;;;5.45;;
26253;SDS011;53339;51.378;0.094;2023-05-10T04:49:29;14.52;;;5.80;;
26253;SDS011;53339;51.378;0.094;2023-05-10T04:52:08;18.88;;;6.75;;
26253;SDS011;53339;51.378;0.094;2023-05-10T04:54:59;15.48;;;6.53;;
26253;SDS011;53339;51.378;0.094;2023-05-10T04:57:33;19.83;;;6.68;;
26253;SDS011;53339;51.378;0.094;2023-05-10T05:00:35;17.13;;;6.70;;
26253;SDS011;53339;51.378;0.094;2023-05-10T05:03:39;22.35;;;7.32;;
26253;SDS011;53339;51.378;0.094;2023-05-10T05:06:32;19.45;;;5.75;;
26253;SDS011;53339;51.378;0.094;2023-05-10T05:09:27;15.88;;;6.03;;
26253;SDS011;53339;51.378;0.094;2023-05-10T05:12:04;18.58;;;7.68;;
26253;SDS011;53339;51.378;0.094;2023-05-10T05:15:10;17.63;;;6.68;;
26253;SDS011;53339;51.378;0.094;2023-05-10T05:18:14;19.30;;;6.40;;
26253;SDS011;53339;51.378;0.094;2023-05-10T05:21:02;23.95;;;7.43;;
26253;SDS011;53339;51.378;0.094;2023-05-10T05:24:15;22.15;;;7.50;;
26253;SDS011;53339;51.378;0.094;2023-05-10T05:27:04;18.65;;;7.03;;
26253;SDS011;53339;51.378;0.094;2023-05-10T05:29:44;12.57;;;4.72;;
26253;SDS011;53339;51.378;0.094;2023-05-10T05:32:38;18.50;;;7.32;;
26253;SDS011;53339;51.378;0.094;2023-05-10T05:35:31;20.20;;;6.80;;
26253;SDS011;53339;51.378;0.094;2023-05-10T05:38:10;19.05;;;8.05;;
26253;SDS011;53339;51.378;0.094;2023-05-10T05:40:52;19.88;;;7.40;;
26253;SDS011;53339;51.378;0.094;2023-05-10T05:43:29;15.85;;;6.38;;
26253;SDS011;53339;51.378;0.094;2023-05-10T05:46:09;18.42;;;6.75;;
26253;SDS011;53339;51.378;0.094;2023-05-10T05:48:53;21.88;;;8.50;;
26253;SDS011;53339;51.378;0.094;2023-05-10T05:51:28;23.55;;;9.40;;
26253;SDS011;53339;51.378;0.094;2023-05-10T05:54:05;21.65;;;8.45;;
26253;SDS011;53339;51.378;0.094;2023-05-10T05:57:01;23.00;;;9.70;;
26253;SDS011;53339;51.378;0.094;2023-05-10T05:59:34;17.02;;;6.60;;
26253;SDS011;53339;51.378;0.094;2023-05-10T06:02:34;26.70;;;9.68;;
26253;SDS011;53339;51.378;0.094;2023-05-10T06:05:12;22.55;;;7.95;;
26253;SDS011;53339;51.378;0.094;2023-05-10T06:08:13;27.73;;;10.27;;
26253;SDS011;53339;51.378;0.094;2023-05-10T06:10:58;27.27;;;8.95;;
26253;SDS011;53339;51.378;0.094;2023-05-10T06:13:44;18.30;;;7.22;;
26253;SDS011;53339;51.378;0.094;2023-05-10T06:16:35;27.80;;;8.77;;
26253;SDS011;53339;51.378;0.094;2023-05-10T06:19:04;17.27;;;8.40;;
26253;SDS011;53339;51.378;0.094;2023-05-10T06:21:48;23.20;;;9.60;;
26253;SDS011;53339;51.378;0.094;2023-05-10T06:24:43;20.17;;;7.63;;
26253;SDS011;53339;51.378;0.094;2023-05-10T06:27:19;20.80;;;8.68;;
26253;SDS011;53339;51.378;0.094;2023-05-10T06:29:48;24.67;;;8.98;;
26253;SDS011;53339;51.378;0.094;2023-05-10T06:32:50;20.27;;;8.40;;
26253;SDS011;53339;51.378;0.094;2023-05-10T06:35:25;16.40;;;6.45;;
26253;SDS011;53339;51.378;0.094;2023-05-10T06:38:12;21.48;;;8.43;;
26253;SDS011;53339;51.378;0.094;2023-05-10T06:41:13;18.13;;;7.10;;
26253;SDS011;53339;51.378;0.094;2023-05-10T06:43:42;16.00;;;6.00;;
26253;SDS011;53339;51.378;0.094;2023-05-10T06:46:21;13.43;;;5.40;;
26253;SDS011;53339;51.378;0.094;2023-05-10T06:48:54;17.42;;;5.80;;
26253;SDS011;53339;51.378;0.094;2023-05-10T06:51:39;16.13;;;6.22;;
26253;SDS011;53339;51.378;0.094;2023-05-10T06:54:11;13.52;;;6.85;;
26253;SDS011;53339;51.378;0.094;2023-05-10T06:56:53;17.05;;;7.32;;
26253;SDS011;53339;51.378;0.094;2023-05-10T06:59:28;24.25;;;6.97;;
26253;SDS011;53339;51.378;0.094;2023-05-10T07:02:24;23.65;;;8.00;;
26253;SDS011;53339;51.378;0.094;2023-05-10T07:05:42;16.77;;;6.82;;
26253;SDS011;53339;51.378;0.094;2023-05-10T07:08:22;11.70;;;5.88;;
26253;SDS011;53339;51.378;0.094;2023-05-10T07:11:32;15.73;;;6.70;;
26253;SDS011;53339;51.378;0.094;2023-05-10T07:14:22;13.75;;;6.10;;
26253;SDS011;53339;51.378;0.094;2023-05-10T07:16:52;17.70;;;6.18;;
26253;SDS011;53339;51.378;0.094;2023-05-10T07:19:59;11.52;;;4.25;;
26253;SDS011;53339;51.378;0.094;2023-05-10T07:22:41;15.35;;;6.57;;
26253;SDS011;53339;51.378;0.094;2023-05-10T07:25:47;22.85;;;8.82;;
26253;SDS011;53339;51.378;0.094;2023-05-10T07:28:33;12.00;;;5.13;;
26253;SDS011;53339;51.378;0.094;2023-05-10T07:31:24;14.85;;;6.95;;
26253;SDS011;53339;51.378;0.094;2023-05-10T07:34:06;17.00;;;7.55;;
26253;SDS011;53339;51.378;0.094;2023-05-10T07:37:11;11.18;;;5.72;;
26253;SDS011;53339;51.378;0.094;2023-05-10T07:39:50;12.45;;;5.50;;
26253;SDS011;53339;51.378;0.094;2023-05-10T07:45:50;12.32;;;5.75;;
26253;SDS011;53339;51.378;0.094;2023-05-10T07:48:35;13.73;;;5.53;;
26253;SDS011;53339;51.378;0.094;2023-05-10T07:51:30;11.32;;;4.68;;
26253;SDS011;53339;51.378;0.094;2023-05-10T07:54:16;13.05;;;5.13;;
26253;SDS011;53339;51.378;0.094;2023-05-10T07:57:03;11.45;;;4.28;;
26253;SDS011;53339;51.378;0.094;2023-05-10T08:00:05;13.73;;;5.75;;
26253;SDS011;53339;51.378;0.094;2023-05-10T08:03:07;15.38;;;6.60;;
26253;SDS011;53339;51.378;0.094;2023-05-10T08:09:31;11.25;;;4.50;;
26253;SDS011;53339;51.378;0.094;2023-05-10T08:12:22;5.93;;;2.83;;
26253;SDS011;53339;51.378;0.094;2023-05-10T08:15:42;12.30;;;3.67;;
26253;SDS011;53339;51.378;0.094;2023-05-10T08:18:51;7.68;;;3.03;;
26253;SDS011;53339;51.378;0.094;2023-05-10T08:21:48;10.80;;;4.13;;
26253;SDS011;53339;51.378;0.094;2023-05-10T08:24:54;9.02;;;2.95;;
26253;SDS011;53339;51.378;0.094;2023-05-10T08:27:46;8.80;;;3.13;;
26253;SDS011;53339;51.378;0.094;2023-05-10T08:30:18;6.57;;;2.60;;
26253;SDS011;53339;51.378;0.094;2023-05-10T08:33:56;9.20;;;3.97;;
26253;SDS011;53339;51.378;0.094;2023-05-10T08:41:08;11.95;;;3.92;;
26253;SDS011;53339;51.378;0.094;2023-05-10T08:43:51;5.88;;;2.63;;
26253;SDS011;53339;51.378;0.094;2023-05-10T08:46:38;5.78;;;2.95;;
26253;SDS011;53339;51.378;0.094;2023-05-10T08:49:20;11.43;;;3.05;;
26253;SDS011;53339;51.378;0.094;2023-05-10T08:52:20;8.82;;;2.78;;
26253;SDS011;53339;51.378;0.094;2023-05-10T08:58:29;8.65;;;2.80;;
26253;SDS011;53339;51.378;0.094;2023-05-10T09:01:12;8.30;;;3.08;;
26253;SDS011;53339;51.378;0.094;2023-05-10T09:03:59;7.22;;;2.67;;
26253;SDS011;53339;51.378;0.094;2023-05-10T09:07:08;11.40;;;2.97;;
26253;SDS011;53339;51.378;0.094;2023-05-10T09:09:52;8.18;;;3.15;;
26253;SDS011;53339;51.378;0.094;2023-05-10T09:13:30;8.05;;;3.20;;
26253;SDS011;53339;51.378;0.094;2023-05-10T09:16:15;8.13;;;3.30;;
26253;SDS011;53339;51.378;0.094;2023-05-10T09:19:16;14.80;;;2.90;;
26253;SDS011;53339;51.378;0.094;2023-05-10T09:25:24;8.50;;;3.03;;
26253;SDS011;53339;51.378;0.094;2023-05-10T09:28:34;8.73;;;2.80;;
26253;SDS011;53339;51.378;0.094;2023-05-10T09:31:47;17.02;;;3.25;;
26253;SDS011;53339;51.378;0.094;2023-05-10T09:34:52;10.95;;;2.85;;
26253;SDS011;53339;51.378;0.094;2023-05-10T09:37:47;11.27;;;3.75;;
26253;SDS011;53339;51.378;0.094;2023-05-10T09:40:35;7.82;;;3.38;;
26253;SDS011;53339;51.378;0.094;2023-05-10T09:43:25;7.90;;;2.92;;
26253;SDS011;53339;51.378;0.094;2023-05-10T09:46:01;7.47;;;3.80;;
26253;SDS011;53339;51.378;0.094;2023-05-10T09:48:59;8.00;;;2.92;;
26253;SDS011;53339;51.378;0.094;2023-05-10T09:51:42;6.05;;;1.92;;
26253;SDS011;53339;51.378;0.094;2023-05-10T10:03:32;7.68;;;3.90;;
26253;SDS011;53339;51.378;0.094;2023-05-10T10:06:42;6.97;;;4.03;;
26253;SDS011;53339;51.378;0.094;2023-05-10T10:09:57;7.65;;;2.35;;
26253;SDS011;53339;51.378;0.094;2023-05-10T10:20:33;7.00;;;2.42;;
26253;SDS011;53339;51.378;0.094;2023-05-10T10:23:45;4.65;;;2.70;;
26253;SDS011;53339;51.378;0.094;2023-05-10T10:26:25;7.10;;;2.85;;
26253;SDS011;53339;51.378;0.094;2023-05-10T10:37:18;9.15;;;3.08;;
26253;SDS011;53339;51.378;0.094;2023-05-10T10:40:46;12.93;;;2.75;;
26253;SDS011;53339;51.378;0.094;2023-05-10T10:43:48;7.25;;;2.85;;
26253;SDS011;53339;51.378;0.094;2023-05-10T10:50:05;5.57;;;3.00;;
26253;SDS011;53339;51.378;0.094;2023-05-10T10:52:44;6.82;;;3.40;;
26253;SDS011;53339;51.378;0.094;2023-05-10T10:56:14;9.45;;;2.88;;
26253;SDS011;53339;51.378;0.094;2023-05-10T10:59:26;6.57;;;2.38;;
26253;SDS011;53339;51.378;0.094;2023-05-10T11:02:50;8.80;;;3.85;;
26253;SDS011;53339;51.378;0.094;2023-05-10T11:08:31;8.25;;;2.60;;
26253;SDS011;53339;51.378;0.094;2023-05-10T11:15:48;6.45;;;2.53;;
26253;SDS011;53339;51.378;0.094;2023-05-10T11:19:10;4.82;;;2.17;;
26253;SDS011;53339;51.378;0.094;2023-05-10T11:25:07;7.03;;;2.72;;
26253;SDS011;53339;51.378;0.094;2023-05-10T11:28:30;4.90;;;2.25;;
26253;SDS011;53339;51.378;0.094;2023-05-10T11:31:49;6.03;;;2.50;;
26253;SDS011;53339;51.378;0.094;2023-05-10T11:34:46;6.72;;;2.13;;
26253;SDS011;53339;51.378;0.094;2023-05-10T11:37:27;5.72;;;2.58;;
26253;SDS011;53339;51.378;0.094;2023-05-10T11:40:08;5.90;;;2.00;;
26253;SDS011;53339;51.378;0.094;2023-05-10T11:43:07;7.28;;;2.90;;
26253;SDS011;53339;51.378;0.094;2023-05-10T11:45:51;6.07;;;2.10;;
26253;SDS011;53339;51.378;0.094;2023-05-10T11:51:52;6.50;;;2.00;;
26253;SDS011;53339;51.378;0.094;2023-05-10T11:54:52;4.97;;;1.95;;
26253;SDS011;53339;51.378;0.094;2023-05-10T11:58:23;3.83;;;1.80;;
26253;SDS011;53339;51.378;0.094;2023-05-10T12:01:21;5.22;;;2.22;;
26253;SDS011;53339;51.378;0.094;2023-05-10T12:04:15;6.28;;;1.70;;
26253;SDS011;53339;51.378;0.094;2023-05-10T12:07:21;4.85;;;1.88;;
26253;SDS011;53339;51.378;0.094;2023-05-10T12:10:06;7.10;;;2.00;;
26253;SDS011;53339;51.378;0.094;2023-05-10T12:13:04;4.68;;;1.85;;
26253;SDS011;53339;51.378;0.094;2023-05-10T12:15:44;4.97;;;1.30;;
26253;SDS011;53339;51.378;0.094;2023-05-10T12:18:29;3.65;;;1.70;;
26253;SDS011;53339;51.378;0.094;2023-05-10T12:21:19;4.75;;;1.60;;
26253;SDS011;53339;51.378;0.094;2023-05-10T12:24:14;4.00;;;0.93;;
26253;SDS011;53339;51.378;0.094;2023-05-10T12:27:00;4.32;;;1.85;;
26253;SDS011;53339;51.378;0.094;2023-05-10T12:29:54;7.93;;;1.92;;
26253;SDS011;53339;51.378;0.094;2023-05-10T12:33:13;5.35;;;1.88;;
26253;SDS011;53339;51.378;0.094;2023-05-10T12:35:58;4.25;;;1.58;;
26253;SDS011;53339;51.378;0.094;2023-05-10T12:38:46;4.05;;;1.73;;
26253;SDS011;53339;51.378;0.094;2023-05-10T12:44:22;2.95;;;1.92;;
26253;SDS011;53339;51.378;0.094;2023-05-10T12:47:04;6.13;;;1.60;;
26253;SDS011;53339;51.378;0.094;2023-05-10T12:49:38;4.95;;;1.45;;
26253;SDS011;53339;51.378;0.094;2023-05-10T12:52:17;4.50;;;2.47;;
26253;SDS011;53339;51.378;0.094;2023-05-10T12:55:21;3.80;;;1.75;;
26253;SDS011;53339;51.378;0.094;2023-05-10T12:57:57;5.70;;;1.50;;
26253;SDS011;53339;51.378;0.094;2023-05-10T13:00:44;6.43;;;1.90;;
26253;SDS011;53339;51.378;0.094;2023-05-10T13:03:35;8.20;;;2.22;;
26253;SDS011;53339;51.378;0.094;2023-05-10T13:06:51;6.43;;;2.22;;
26253;SDS011;53339;51.378;0.094;2023-05-10T13:09:37;3.90;;;1.52;;
26253;SDS011;53339;51.378;0.094;2023-05-10T13:15:15;4.93;;;1.48;;
26253;SDS011;53339;51.378;0.094;2023-05-10T13:17:59;6.75;;;2.10;;
26253;SDS011;53339;51.378;0.094;2023-05-10T13:20:32;4.63;;;1.67;;
26253;SDS011;53339;51.378;0.094;2023-05-10T13:23:42;5.18;;;2.50;;
26253;SDS011;53339;51.378;0.094;2023-05-10T13:26:20;5.85;;;1.77;;
26253;SDS011;53339;51.378;0.094;2023-05-10T13:29:07;5.90;;;1.92;;
26253;SDS011;53339;51.378;0.094;2023-05-10T13:31:54;7.15;;;3.03;;
26253;SDS011;53339;51.378;0.094;2023-05-10T13:34:34;7.55;;;2.45;;
26253;SDS011;53339;51.378;0.094;2023-05-10T13:37:25;7.90;;;1.83;;
26253;SDS011;53339;51.378;0.094;2023-05-10T13:40:01;4.78;;;1.55;;
26253;SDS011;53339;51.378;0.094;2023-05-10T13:42:42;4.07;;;1.98;;
26253;SDS011;53339;51.378;0.094;2023-05-10T13:45:56;6.45;;;1.83;;
26253;SDS011;53339;51.378;0.094;2023-05-10T13:48:42;5.20;;;2.03;;
26253;SDS011;53339;51.378;0.094;2023-05-10T13:51:43;4.40;;;2.22;;
26253;SDS011;53339;51.378;0.094;2023-05-10T13:54:23;5.68;;;1.70;;
26253;SDS011;53339;51.378;0.094;2023-05-10T13:57:10;5.30;;;1.60;;
26253;SDS011;53339;51.378;0.094;2023-05-10T13:59:49;4.47;;;1.95;;
26253;SDS011;53339;51.378;0.094;2023-05-10T14:02:47;6.03;;;2.25;;
26253;SDS011;53339;51.378;0.094;2023-05-10T14:05:54;4.35;;;1.40;;
26253;SDS011;53339;51.378;0.094;2023-05-10T14:09:03;5.47;;;1.40;;
26253;SDS011;53339;51.378;0.094;2023-05-10T14:12:06;4.05;;;1.05;;
26253;SDS011;53339;51.378;0.094;2023-05-10T14:15:05;7.18;;;2.03;;
26253;SDS011;53339;51.378;0.094;2023-05-10T14:17:45;4.70;;;1.52;;
26253;SDS011;53339;51.378;0.094;2023-05-10T14:20:26;2.10;;;0.98;;
26253;SDS011;53339;51.378;0.094;2023-05-10T14:23:07;3.47;;;1.95;;
26253;SDS011;53339;51.378;0.094;2023-05-10T14:25:46;5.57;;;2.05;;
26253;SDS011;53339;51.378;0.094;2023-05-10T14:28:29;6.82;;;2.38;;
26253;SDS011;53339;51.378;0.094;2023-05-10T14:31:21;6.88;;;2.97;;
26253;SDS011;53339;51.378;0.094;2023-05-10T14:34:04;4.53;;;1.70;;
26253;SDS011;53339;51.378;0.094;2023-05-10T14:36:43;4.93;;;1.75;;
26253;SDS011;53339;51.378;0.094;2023-05-10T14:43:01;7.20;;;2.53;;
26253;SDS011;53339;51.378;0.094;2023-05-10T14:46:05;6.57;;;1.85;;
26253;SDS011;53339;51.378;0.094;2023-05-10T14:49:03;4.70;;;2.33;;
26253;SDS011;53339;51.378;0.094;2023-05-10T14:51:34;4.68;;;1.80;;
26253;SDS011;53339;51.378;0.094;2023-05-10T14:54:40;3.15;;;1.50;;
26253;SDS011;53339;51.378;0.094;2023-05-10T14:57:26;3.28;;;1.30;;
26253;SDS011;53339;51.378;0.094;2023-05-10T15:00:11;4.72;;;1.02;;
26253;SDS011;53339;51.378;0.094;2023-05-10T15:03:05;3.45;;;1.35;;
26253;SDS011;53339;51.378;0.094;2023-05-10T15:06:03;5.10;;;1.13;;
26253;SDS011;53339;51.378;0.094;2023-05-10T15:08:43;4.63;;;1.27;;
26253;SDS011;53339;51.378;0.094;2023-05-10T15:11:20;1.25;;;0.75;;
26253;SDS011;53339;51.378;0.094;2023-05-10T15:17:13;0.88;;;0.50;;
26253;SDS011;53339;51.378;0.094;2023-05-10T15:20:18;0.85;;;0.55;;
26253;SDS011;53339;51.378;0.094;2023-05-10T15:23:01;1.48;;;0.88;;
26253;SDS011;53339;51.378;0.094;2023-05-10T15:25:44;1.60;;;0.70;;
26253;SDS011;53339;51.378;0.094;2023-05-10T15:28:16;1.95;;;0.65;;
26253;SDS011;53339;51.378;0.094;2023-05-10T15:31:20;1.27;;;0.60;;
26253;SDS011;53339;51.378;0.094;2023-05-10T15:34:02;2.55;;;1.08;;
26253;SDS011;53339;51.378;0.094;2023-05-10T15:36:51;1.65;;;0.98;;
26253;SDS011;53339;51.378;0.094;2023-05-10T15:40:11;1.90;;;1.15;;
26253;SDS011;53339;51.378;0.094;2023-05-10T15:43:20;3.35;;;1.30;;
26253;SDS011;53339;51.378;0.094;2023-05-10T15:46:17;2.88;;;1.05;;
26253;SDS011;53339;51.378;0.094;2023-05-10T15:49:12;2.55;;;1.17;;
26253;SDS011;53339;51.378;0.094;2023-05-10T15:52:11;5.43;;;1.40;;
26253;SDS011;53339;51.378;0.094;2023-05-10T15:54:40;8.55;;;1.50;;
26253;SDS011;53339;51.378;0.094;2023-05-10T15:57:29;4.22;;;1.33;;
26253;SDS011;53339;51.378;0.094;2023-05-10T16:00:14;3.85;;;1.17;;
26253;SDS011;53339;51.378;0.094;2023-05-10T16:02:52;4.65;;;1.38;;
26253;SDS011;53339;51.378;0.094;2023-05-10T16:05:23;3.60;;;1.08;;
26253;SDS011;53339;51.378;0.094;2023-05-10T16:08:13;4.53;;;1.67;;
26253;SDS011;53339;51.378;0.094;2023-05-10T16:11:05;3.17;;;1.00;;
26253;SDS011;53339;51.378;0.094;2023-05-10T16:14:15;2.78;;;1.10;;
26253;SDS011;53339;51.378;0.094;2023-05-10T16:16:54;3.33;;;1.73;;
26253;SDS011;53339;51.378;0.094;2023-05-10T16:19:28;3.30;;;1.10;;
26253;SDS011;53339;51.378;0.094;2023-05-10T16:22:34;5.38;;;1.85;;
26253;SDS011;53339;51.378;0.094;2023-05-10T16:25:36;4.40;;;0.93;;
26253;SDS011;53339;51.378;0.094;2023-05-10T16:28:35;5.25;;;2.20;;
26253;SDS011;53339;51.378;0.094;2023-05-10T16:31:32;3.47;;;1.17;;
26253;SDS011;53339;51.378;0.094;2023-05-10T16:34:12;3.67;;;1.10;;
26253;SDS011;53339;51.378;0.094;2023-05-10T16:37:29;1.55;;;1.13;;
26253;SDS011;53339;51.378;0.094;2023-05-10T16:40:39;1.85;;;1.05;;
26253;SDS011;53339;51.378;0.094;2023-05-10T16:43:37;3.72;;;1.42;;
26253;SDS011;53339;51.378;0.094;2023-05-10T16:46:46;2.88;;;1.70;;
26253;SDS011;53339;51.378;0.094;2023-05-10T16:50:21;4.28;;;1.88;;
26253;SDS011;53339;51.378;0.094;2023-05-10T16:52:52;3.45;;;2.17;;
26253;SDS011;53339;51.378;0.094;2023-05-10T16:56:19;7.22;;;2.10;;
26253;SDS011;53339;51.378;0.094;2023-05-10T16:59:29;2.80;;;1.55;;
26253;SDS011;53339;51.378;0.094;2023-05-10T17:02:13;7.50;;;2.92;;
26253;SDS011;53339;51.378;0.094;2023-05-10T17:04:42;4.93;;;2.08;;
26253;SDS011;53339;51.378;0.094;2023-05-10T17:07:24;5.72;;;2.65;;
26253;SDS011;53339;51.378;0.094;2023-05-10T17:11:02;6.93;;;2.15;;
26253;SDS011;53339;51.378;0.094;2023-05-10T17:13:41;6.85;;;2.85;;
26253;SDS011;53339;51.378;0.094;2023-05-10T17:16:57;3.63;;;1.92;;
26253;SDS011;53339;51.378;0.094;2023-05-10T17:20:05;5.80;;;1.83;;
26253;SDS011;53339;51.378;0.094;2023-05-10T17:23:29;2.83;;;2.17;;
26253;SDS011;53339;51.378;0.094;2023-05-10T17:26:14;4.65;;;1.83;;
26253;SDS011;53339;51.378;0.094;2023-05-10T17:29:17;7.28;;;2.80;;
26253;SDS011;53339;51.378;0.094;2023-05-10T17:32:38;8.60;;;2.95;;
26253;SDS011;53339;51.378;0.094;2023-05-10T17:35:35;7.88;;;1.55;;
26253;SDS011;53339;51.378;0.094;2023-05-10T17:38:03;3.88;;;1.98;;
26253;SDS011;53339;51.378;0.094;2023-05-10T17:42:08;6.80;;;2.50;;
26253;SDS011;53339;51.378;0.094;2023-05-10T17:45:01;6.57;;;2.33;;
26253;SDS011;53339;51.378;0.094;2023-05-10T17:47:32;4.55;;;2.42;;
26253;SDS011;53339;51.378;0.094;2023-05-10T17:50:42;8.05;;;3.30;;
26253;SDS011;53339;51.378;0.094;2023-05-10T17:53:23;9.43;;;3.38;;
26253;SDS011;53339;51.378;0.094;2023-05-10T17:56:15;4.80;;;1.55;;
26253;SDS011;53339;51.378;0.094;2023-05-10T17:58:54;5.75;;;2.40;;
26253;SDS011;53339;51.378;0.094;2023-05-10T18:01:24;4.28;;;2.38;;
26253;SDS011;53339;51.378;0.094;2023-05-10T18:04:14;5.88;;;2.03;;
26253;SDS011;53339;51.378;0.094;2023-05-10T18:07:19;6.85;;;2.00;;
26253;SDS011;53339;51.378;0.094;2023-05-10T18:09:55;7.28;;;2.42;;
26253;SDS011;53339;51.378;0.094;2023-05-10T18:13:05;5.45;;;1.65;;
26253;SDS011;53339;51.378;0.094;2023-05-10T18:16:02;6.68;;;1.75;;
26253;SDS011;53339;51.378;0.094;2023-05-10T18:18:33;5.10;;;1.75;;
26253;SDS011;53339;51.378;0.094;2023-05-10T18:21:32;4.95;;;2.47;;
26253;SDS011;53339;51.378;0.094;2023-05-10T18:24:39;4.30;;;1.70;;
26253;SDS011;53339;51.378;0.094;2023-05-10T18:27:39;5.35;;;2.33;;
26253;SDS011;53339;51.378;0.094;2023-05-10T18:30:34;5.80;;;3.05;;
26253;SDS011;53339;51.378;0.094;2023-05-10T18:34:06;9.13;;;2.20;;
26253;SDS011;53339;51.378;0.094;2023-05-10T18:36:57;6.07;;;2.20;;
26253;SDS011;53339;51.378;0.094;2023-05-10T18:39:50;8.25;;;3.08;;
26253;SDS011;53339;51.378;0.094;2023-05-10T18:42:19;13.23;;;3.00;;
26253;SDS011;53339;51.378;0.094;2023-05-10T18:45:06;7.18;;;2.92;;
26253;SDS011;53339;51.378;0.094;2023-05-10T18:48:06;7.75;;;2.33;;
26253;SDS011;53339;51.378;0.094;2023-05-10T18:50:45;9.55;;;3.45;;
26253;SDS011;53339;51.378;0.094;2023-05-10T18:53:33;10.23;;;2.40;;
26253;SDS011;53339;51.378;0.094;2023-05-10T18:56:04;9.32;;;2.80;;